N47AG KJQF-KHXD
Flight info
| Callsign | N47AG |
|---|---|
| Flight time | 0h 38m |
| Altitude | 34000 |
| Route | ICONS5 NOOKS CAE ALD SAV |
| Aircraft | C750/M-VGDW/C |
Departure
| Time | 2026-04-30 01:29 |
|---|---|
| Airport | Concord-Padgett Regional Airport (KJQF) |
Arrival
| Time | 2026-04-30 02:08 |
|---|---|
| Airport | Hilton Head Airport (KHXD) |
| Time | Latitude | Longitude | Altitude | Speed | Heading |
|---|---|---|---|---|---|
| 2026-04-30 01:11 | 35.38949 | -80.71079 | 683 ft | 0 kts | 278° |
| 2026-04-30 01:25 | 35.38946 | -80.71082 | 686 ft | 1 kts | 230° |
| 2026-04-30 01:25 | 35.38923 | -80.71064 | 684 ft | 9 kts | 134° |
| 2026-04-30 01:25 | 35.38960 | -80.71011 | 687 ft | 13 kts | 14° |
| 2026-04-30 01:25 | 35.39063 | -80.70986 | 690 ft | 16 kts | 10° |
| 2026-04-30 01:26 | 35.39182 | -80.70959 | 690 ft | 18 kts | 10° |
| 2026-04-30 01:26 | 35.39321 | -80.70928 | 699 ft | 23 kts | 9° |
| 2026-04-30 01:26 | 35.39469 | -80.70895 | 703 ft | 20 kts | 11° |
| 2026-04-30 01:26 | 35.39591 | -80.70866 | 707 ft | 16 kts | 11° |
| 2026-04-30 01:27 | 35.39691 | -80.70845 | 710 ft | 13 kts | 9° |
| 2026-04-30 01:27 | 35.39768 | -80.70829 | 713 ft | 9 kts | 18° |
| 2026-04-30 01:27 | 35.39786 | -80.70797 | 713 ft | 2 kts | 93° |
| 2026-04-30 01:27 | 35.39785 | -80.70791 | 713 ft | 0 kts | 98° |
| 2026-04-30 01:28 | 35.39785 | -80.70789 | 713 ft | 0 kts | 98° |
| 2026-04-30 01:28 | 35.39781 | -80.70759 | 713 ft | 8 kts | 101° |
| 2026-04-30 01:29 | 35.39724 | -80.70701 | 712 ft | 19 kts | 191° |
| 2026-04-30 01:29 | 35.39311 | -80.70794 | 699 ft | 116 kts | 191° |
| 2026-04-30 01:29 | 35.38368 | -80.71013 | 1140 ft | 141 kts | 191° |
| 2026-04-30 01:29 | 35.37365 | -80.71001 | 1810 ft | 153 kts | 168° |
| 2026-04-30 01:30 | 35.36379 | -80.70323 | 2360 ft | 172 kts | 143° |
| 2026-04-30 01:30 | 35.35365 | -80.69369 | 2800 ft | 198 kts | 141° |
| 2026-04-30 01:30 | 35.34183 | -80.68233 | 3152 ft | 222 kts | 142° |
| 2026-04-30 01:30 | 35.33039 | -80.67133 | 4296 ft | 199 kts | 142° |
| 2026-04-30 01:31 | 35.31921 | -80.66053 | 4760 ft | 217 kts | 142° |
| 2026-04-30 01:31 | 35.30610 | -80.64941 | 5043 ft | 241 kts | 158° |
| 2026-04-30 01:31 | 35.28997 | -80.64919 | 5785 ft | 227 kts | 205° |
| 2026-04-30 01:31 | 35.27721 | -80.65996 | 6475 ft | 230 kts | 224° |
| 2026-04-30 01:32 | 35.26379 | -80.67245 | 6827 ft | 258 kts | 217° |
| 2026-04-30 01:32 | 35.24725 | -80.68332 | 7505 ft | 276 kts | 209° |
| 2026-04-30 01:32 | 35.22996 | -80.69317 | 8748 ft | 273 kts | 211° |
| 2026-04-30 01:32 | 35.21323 | -80.70365 | 9831 ft | 276 kts | 213° |
| 2026-04-30 01:33 | 35.19616 | -80.71485 | 10686 ft | 282 kts | 213° |
| 2026-04-30 01:33 | 35.17859 | -80.72606 | 11483 ft | 289 kts | 213° |
| 2026-04-30 01:33 | 35.16052 | -80.73737 | 12310 ft | 295 kts | 213° |
| 2026-04-30 01:33 | 35.14212 | -80.74898 | 13133 ft | 301 kts | 213° |
| 2026-04-30 01:34 | 35.12331 | -80.76091 | 13916 ft | 307 kts | 213° |
| 2026-04-30 01:34 | 35.10429 | -80.77292 | 14751 ft | 309 kts | 213° |
| 2026-04-30 01:34 | 35.08524 | -80.78490 | 15574 ft | 304 kts | 214° |
| 2026-04-30 01:34 | 35.06626 | -80.79689 | 16351 ft | 307 kts | 214° |
| 2026-04-30 01:35 | 35.04730 | -80.80887 | 17302 ft | 308 kts | 214° |
| 2026-04-30 01:35 | 35.02820 | -80.82093 | 18194 ft | 311 kts | 214° |
| 2026-04-30 01:35 | 35.00891 | -80.83308 | 18971 ft | 313 kts | 214° |
| 2026-04-30 01:35 | 34.98944 | -80.84534 | 19762 ft | 317 kts | 215° |
| 2026-04-30 01:36 | 34.96975 | -80.85775 | 20578 ft | 320 kts | 215° |
| 2026-04-30 01:36 | 34.94984 | -80.87028 | 21386 ft | 324 kts | 216° |
| 2026-04-30 01:36 | 34.92967 | -80.88296 | 22201 ft | 328 kts | 216° |
| 2026-04-30 01:36 | 34.90928 | -80.89577 | 23025 ft | 331 kts | 216° |
| 2026-04-30 01:37 | 34.88859 | -80.90878 | 23691 ft | 338 kts | 216° |
| 2026-04-30 01:37 | 34.86759 | -80.92197 | 24342 ft | 342 kts | 217° |
| 2026-04-30 01:37 | 34.84638 | -80.93524 | 25093 ft | 343 kts | 217° |
| 2026-04-30 01:37 | 34.82516 | -80.94852 | 25871 ft | 343 kts | 217° |
| 2026-04-30 01:38 | 34.80283 | -80.95995 | 26582 ft | 356 kts | 208° |
| 2026-04-30 01:38 | 34.77829 | -80.96666 | 27349 ft | 369 kts | 199° |
| 2026-04-30 01:38 | 34.75224 | -80.96852 | 28069 ft | 379 kts | 192° |
| 2026-04-30 01:38 | 34.72580 | -80.96918 | 28781 ft | 381 kts | 193° |
| 2026-04-30 01:39 | 34.69923 | -80.97008 | 29474 ft | 383 kts | 194° |
| 2026-04-30 01:39 | 34.67250 | -80.97100 | 30204 ft | 383 kts | 194° |
| 2026-04-30 01:39 | 34.64587 | -80.97179 | 30865 ft | 383 kts | 194° |
| 2026-04-30 01:39 | 34.61922 | -80.97270 | 31461 ft | 382 kts | 195° |
| 2026-04-30 01:40 | 34.59287 | -80.97518 | 32112 ft | 379 kts | 198° |
| 2026-04-30 01:40 | 34.56662 | -80.97774 | 32810 ft | 378 kts | 198° |
| 2026-04-30 01:40 | 34.54042 | -80.98013 | 33527 ft | 376 kts | 199° |
| 2026-04-30 01:40 | 34.51473 | -80.98238 | 33852 ft | 371 kts | 199° |
| 2026-04-30 01:41 | 34.46304 | -80.98749 | 33840 ft | 376 kts | 199° |
| 2026-04-30 01:41 | 34.41084 | -80.99223 | 33878 ft | 376 kts | 199° |
| 2026-04-30 01:42 | 34.35758 | -80.99748 | 33900 ft | 399 kts | 197° |
| 2026-04-30 01:42 | 34.32923 | -81.00018 | 33904 ft | 418 kts | 197° |
| 2026-04-30 01:42 | 34.29984 | -81.00276 | 33907 ft | 427 kts | 196° |
| 2026-04-30 01:43 | 34.24021 | -81.00818 | 33904 ft | 431 kts | 196° |
| 2026-04-30 01:43 | 34.18030 | -81.01385 | 33897 ft | 433 kts | 196° |
| 2026-04-30 01:44 | 34.11995 | -81.01945 | 33876 ft | 441 kts | 196° |
| 2026-04-30 01:44 | 34.05881 | -81.02509 | 33885 ft | 441 kts | 195° |
| 2026-04-30 01:45 | 33.99763 | -81.03078 | 33885 ft | 441 kts | 195° |
| 2026-04-30 01:45 | 33.93743 | -81.04010 | 33883 ft | 435 kts | 200° |
| 2026-04-30 01:46 | 33.87743 | -81.05034 | 33867 ft | 435 kts | 199° |
| 2026-04-30 01:46 | 33.81858 | -81.06500 | 33334 ft | 432 kts | 205° |
| 2026-04-30 01:47 | 33.78938 | -81.07340 | 32705 ft | 432 kts | 204° |
| 2026-04-30 01:47 | 33.76014 | -81.08150 | 32139 ft | 432 kts | 204° |
| 2026-04-30 01:47 | 33.73081 | -81.08978 | 31478 ft | 434 kts | 204° |
| 2026-04-30 01:47 | 33.70178 | -81.09814 | 30768 ft | 435 kts | 204° |
| 2026-04-30 01:48 | 33.67228 | -81.10655 | 30066 ft | 436 kts | 203° |
| 2026-04-30 01:48 | 33.64235 | -81.11498 | 29262 ft | 437 kts | 202° |
| 2026-04-30 01:48 | 33.61319 | -81.12321 | 28666 ft | 437 kts | 202° |
| 2026-04-30 01:48 | 33.58346 | -81.13168 | 28086 ft | 441 kts | 202° |
| 2026-04-30 01:49 | 33.55367 | -81.14011 | 27509 ft | 437 kts | 201° |
| 2026-04-30 01:49 | 33.52421 | -81.14838 | 26957 ft | 433 kts | 201° |
| 2026-04-30 01:49 | 33.49500 | -81.15663 | 26404 ft | 429 kts | 201° |
| 2026-04-30 01:49 | 33.46608 | -81.16483 | 25857 ft | 425 kts | 201° |
| 2026-04-30 01:50 | 33.43742 | -81.17293 | 25315 ft | 421 kts | 200° |
| 2026-04-30 01:50 | 33.40902 | -81.18093 | 24780 ft | 418 kts | 200° |
| 2026-04-30 01:50 | 33.38084 | -81.18886 | 24267 ft | 414 kts | 200° |
| 2026-04-30 01:50 | 33.35293 | -81.19673 | 23736 ft | 411 kts | 200° |
| 2026-04-30 01:51 | 33.32521 | -81.20454 | 23176 ft | 407 kts | 200° |
| 2026-04-30 01:51 | 33.29773 | -81.21227 | 22655 ft | 405 kts | 199° |
| 2026-04-30 01:51 | 33.27037 | -81.21996 | 22137 ft | 403 kts | 199° |
| 2026-04-30 01:51 | 33.25194 | -81.22514 | 21790 ft | 402 kts | 199° |
| 2026-04-30 01:52 | 33.21602 | -81.23522 | 21135 ft | 399 kts | 199° |
| 2026-04-30 01:52 | 33.18906 | -81.24279 | 20647 ft | 397 kts | 199° |
| 2026-04-30 01:52 | 33.16223 | -81.25032 | 20159 ft | 395 kts | 199° |
| 2026-04-30 01:52 | 33.14413 | -81.25539 | 19822 ft | 394 kts | 199° |
| 2026-04-30 01:53 | 33.11777 | -81.26277 | 19337 ft | 392 kts | 198° |
| 2026-04-30 01:53 | 33.09128 | -81.27019 | 18845 ft | 391 kts | 198° |
| 2026-04-30 01:53 | 33.06449 | -81.27605 | 18330 ft | 394 kts | 190° |
| 2026-04-30 01:53 | 33.03697 | -81.27512 | 17846 ft | 398 kts | 176° |
| 2026-04-30 01:54 | 33.01000 | -81.26722 | 17352 ft | 401 kts | 163° |
| 2026-04-30 01:54 | 32.98501 | -81.25248 | 16827 ft | 403 kts | 150° |
| 2026-04-30 01:54 | 32.96324 | -81.23163 | 16320 ft | 401 kts | 137° |
| 2026-04-30 01:54 | 32.94391 | -81.20781 | 15815 ft | 399 kts | 135° |
| 2026-04-30 01:55 | 32.92470 | -81.18413 | 15298 ft | 395 kts | 135° |
| 2026-04-30 01:55 | 32.90563 | -81.16082 | 14780 ft | 391 kts | 135° |
| 2026-04-30 01:55 | 32.88676 | -81.13768 | 14268 ft | 388 kts | 135° |
| 2026-04-30 01:55 | 32.86808 | -81.11471 | 13761 ft | 384 kts | 135° |
| 2026-04-30 01:56 | 32.84955 | -81.09198 | 13227 ft | 381 kts | 135° |
| 2026-04-30 01:56 | 32.83116 | -81.06948 | 12722 ft | 378 kts | 134° |
| 2026-04-30 01:56 | 32.81290 | -81.04713 | 12235 ft | 376 kts | 134° |
| 2026-04-30 01:56 | 32.79477 | -81.02494 | 11742 ft | 373 kts | 134° |
| 2026-04-30 01:57 | 32.77677 | -81.00292 | 11254 ft | 371 kts | 134° |
| 2026-04-30 01:57 | 32.75911 | -80.98135 | 10775 ft | 354 kts | 134° |
| 2026-04-30 01:57 | 32.74236 | -80.96089 | 10330 ft | 336 kts | 134° |
| 2026-04-30 01:57 | 32.72640 | -80.94142 | 9909 ft | 323 kts | 134° |
| 2026-04-30 01:58 | 32.71086 | -80.92246 | 9477 ft | 317 kts | 134° |
| 2026-04-30 01:58 | 32.69582 | -80.90413 | 9077 ft | 313 kts | 135° |
| 2026-04-30 01:58 | 32.68067 | -80.88566 | 8656 ft | 311 kts | 135° |
| 2026-04-30 01:58 | 32.66542 | -80.86709 | 8258 ft | 308 kts | 135° |
| 2026-04-30 01:59 | 32.63592 | -80.83119 | 7464 ft | 303 kts | 136° |
| 2026-04-30 01:59 | 32.62107 | -80.81312 | 7065 ft | 301 kts | 136° |
| 2026-04-30 01:59 | 32.60650 | -80.79541 | 6673 ft | 298 kts | 137° |
| 2026-04-30 02:00 | 32.59206 | -80.77787 | 6279 ft | 296 kts | 137° |
| 2026-04-30 02:00 | 32.57776 | -80.76052 | 5882 ft | 294 kts | 137° |
| 2026-04-30 02:00 | 32.56352 | -80.74321 | 5496 ft | 293 kts | 137° |
| 2026-04-30 02:00 | 32.54933 | -80.72601 | 5111 ft | 291 kts | 137° |
| 2026-04-30 02:01 | 32.53526 | -80.70894 | 4727 ft | 288 kts | 137° |
| 2026-04-30 02:01 | 32.52127 | -80.69198 | 4339 ft | 286 kts | 137° |
| 2026-04-30 02:01 | 32.50761 | -80.67543 | 3970 ft | 283 kts | 137° |
| 2026-04-30 02:01 | 32.49389 | -80.65882 | 3597 ft | 280 kts | 137° |
| 2026-04-30 02:02 | 32.48036 | -80.64244 | 3228 ft | 277 kts | 137° |
| 2026-04-30 02:02 | 32.46707 | -80.62635 | 2874 ft | 265 kts | 136° |
| 2026-04-30 02:02 | 32.45468 | -80.61134 | 2498 ft | 245 kts | 136° |
| 2026-04-30 02:02 | 32.44303 | -80.59743 | 2182 ft | 232 kts | 138° |
| 2026-04-30 02:03 | 32.42944 | -80.58830 | 1792 ft | 222 kts | 169° |
| 2026-04-30 02:03 | 32.41473 | -80.58861 | 1806 ft | 204 kts | 197° |
| 2026-04-30 02:03 | 32.40253 | -80.59500 | 1880 ft | 196 kts | 209° |
| 2026-04-30 02:03 | 32.38956 | -80.60241 | 1887 ft | 209 kts | 207° |
| 2026-04-30 02:04 | 32.37621 | -80.60995 | 1791 ft | 214 kts | 208° |
| 2026-04-30 02:04 | 32.36280 | -80.61767 | 1629 ft | 215 kts | 208° |
| 2026-04-30 02:04 | 32.34941 | -80.62543 | 1459 ft | 214 kts | 208° |
| 2026-04-30 02:04 | 32.33616 | -80.63307 | 1286 ft | 211 kts | 207° |
| 2026-04-30 02:05 | 32.32315 | -80.64037 | 1359 ft | 205 kts | 206° |
| 2026-04-30 02:05 | 32.31020 | -80.64749 | 1287 ft | 206 kts | 206° |
| 2026-04-30 02:05 | 32.29728 | -80.65482 | 1252 ft | 205 kts | 207° |
| 2026-04-30 02:05 | 32.28452 | -80.66248 | 1183 ft | 199 kts | 207° |
| 2026-04-30 02:06 | 32.27326 | -80.66903 | 943 ft | 163 kts | 206° |
| 2026-04-30 02:06 | 32.26405 | -80.67430 | 756 ft | 134 kts | 206° |
| 2026-04-30 02:06 | 32.25636 | -80.67899 | 646 ft | 118 kts | 208° |
| 2026-04-30 02:06 | 32.24898 | -80.68338 | 459 ft | 120 kts | 205° |
| 2026-04-30 02:07 | 32.24146 | -80.68759 | 269 ft | 119 kts | 205° |
| 2026-04-30 02:07 | 32.23418 | -80.69183 | 143 ft | 115 kts | 207° |
| 2026-04-30 02:07 | 32.22716 | -80.69588 | 33 ft | 106 kts | 205° |
| 2026-04-30 02:07 | 32.22170 | -80.69903 | 18 ft | 59 kts | 205° |
| 2026-04-30 02:08 | 32.21946 | -80.70031 | 18 ft | 17 kts | 204° |
| 2026-04-30 02:08 | 32.21885 | -80.69978 | 19 ft | 9 kts | 91° |
| 2026-04-30 02:08 | 32.21939 | -80.69926 | 19 ft | 14 kts | 27° |
| 2026-04-30 02:08 | 32.22031 | -80.69873 | 18 ft | 15 kts | 26° |
| 2026-04-30 02:09 | 32.22124 | -80.69820 | 18 ft | 14 kts | 24° |
| 2026-04-30 02:09 | 32.22203 | -80.69774 | 20 ft | 11 kts | 25° |
| 2026-04-30 02:09 | 32.22273 | -80.69734 | 21 ft | 12 kts | 25° |
| 2026-04-30 02:09 | 32.22346 | -80.69691 | 22 ft | 12 kts | 27° |
| 2026-04-30 02:10 | 32.22356 | -80.69621 | 22 ft | 8 kts | 108° |
| 2026-04-30 02:10 | 32.22368 | -80.69573 | 26 ft | 5 kts | 40° |
| 2026-04-30 02:10 | 32.22614 | -80.69646 | 31 ft | 102 kts | 205° |
| 2026-04-30 02:10 | 32.22580 | -80.69665 | 28 ft | 101 kts | 205° |